createdAt,value
2022-11-04T00:00:17.943Z,1.50
2022-11-04T00:02:44.902Z,1.13
2022-11-04T00:05:11.874Z,1.85
2022-11-04T00:07:57.260Z,2.08
2022-11-04T00:10:44.128Z,2.42
2022-11-04T00:13:11.180Z,1.35
2022-11-04T00:15:56.963Z,1.23
2022-11-04T00:18:23.929Z,2.72
2022-11-04T00:21:17.004Z,3.33
2022-11-04T00:24:02.534Z,4.68
2022-11-04T00:26:48.287Z,2.38
2022-11-04T00:29:15.197Z,0.35
2022-11-04T00:32:17.464Z,2.03
2022-11-04T00:34:44.588Z,0.98
2022-11-04T00:37:11.517Z,0.50
2022-11-04T00:39:38.390Z,4.60
2022-11-04T00:42:05.549Z,2.40
2022-11-04T00:44:32.456Z,1.17
2022-11-04T00:46:59.369Z,3.70
2022-11-04T00:49:26.220Z,2.55
2022-11-04T00:51:53.228Z,2.22
2022-11-04T00:54:20.155Z,1.75
2022-11-04T00:56:48.658Z,5.57
2022-11-04T00:59:15.779Z,5.20
2022-11-04T01:01:42.872Z,2.38
2022-11-04T01:04:10.070Z,0.95
2022-11-04T01:06:37.134Z,0.75
2022-11-04T01:09:08.481Z,0.17
2022-11-04T01:11:35.500Z,2.13
2022-11-04T01:14:02.714Z,2.22
2022-11-04T01:16:29.901Z,1.10
2022-11-04T01:18:56.924Z,0.25
2022-11-04T01:21:23.972Z,0.65
2022-11-04T01:23:50.877Z,1.17
2022-11-04T01:26:25.729Z,2.40
2022-11-04T01:28:54.967Z,0.90
2022-11-04T01:31:27.711Z,1.50
2022-11-04T01:33:55.999Z,0.75
2022-11-04T01:36:23.093Z,0.75
2022-11-04T01:38:50.338Z,1.05
2022-11-04T01:41:23.806Z,1.88
2022-11-04T01:43:54.895Z,0.40
2022-11-04T01:46:43.978Z,1.42
2022-11-04T01:49:40.774Z,0.40
2022-11-04T01:52:20.027Z,1.85
2022-11-04T01:54:52.366Z,1.30
2022-11-04T01:57:34.679Z,3.03
2022-11-04T02:00:04.707Z,1.77
2022-11-04T02:02:32.257Z,2.47
2022-11-04T02:04:59.833Z,2.03
2022-11-04T02:07:27.106Z,2.25
2022-11-04T02:09:55.334Z,0.80
2022-11-04T02:12:40.839Z,2.67
2022-11-04T02:15:08.193Z,1.95
2022-11-04T02:18:02.428Z,2.25
2022-11-04T02:20:38.127Z,1.23
2022-11-04T02:23:11.059Z,1.48
2022-11-04T02:25:54.715Z,0.65
2022-11-04T02:29:08.292Z,1.27
2022-11-04T02:31:46.626Z,0.73
2022-11-04T02:34:39.602Z,2.50
2022-11-04T02:37:22.165Z,0.30
2022-11-04T02:40:01.223Z,0.25
2022-11-04T02:42:31.007Z,0.30
2022-11-04T02:45:23.214Z,0.77
2022-11-04T02:47:58.014Z,0.13
2022-11-04T02:50:51.679Z,0.20
2022-11-04T02:53:26.035Z,0.10
2022-11-04T02:55:56.850Z,0.30
2022-11-04T02:58:37.357Z,4.97
2022-11-04T03:01:06.543Z,0.77
2022-11-04T03:03:39.950Z,1.58
2022-11-04T03:06:10.604Z,0.95
2022-11-04T03:08:42.158Z,3.10
2022-11-04T03:11:14.026Z,1.85
2022-11-04T03:13:50.237Z,0.05
2022-11-04T03:19:10.112Z,1.35
2022-11-04T03:21:42.167Z,1.65
2022-11-04T03:24:09.119Z,0.30
2022-11-04T03:26:44.962Z,2.30
2022-11-04T03:29:23.850Z,0.90
2022-11-04T03:31:56.774Z,1.67
2022-11-04T03:34:24.009Z,0.65
2022-11-04T03:36:51.071Z,0.52
2022-11-04T03:39:18.038Z,2.28
2022-11-04T03:41:55.725Z,0.10
2022-11-04T03:44:23.532Z,1.05
2022-11-04T03:46:53.766Z,0.30
2022-11-04T03:49:24.621Z,0.52
2022-11-04T03:51:52.399Z,1.40
2022-11-04T03:54:20.029Z,0.25
2022-11-04T03:57:08.833Z,1.77
2022-11-04T04:00:01.120Z,0.32
2022-11-04T04:02:52.852Z,8.75
2022-11-04T04:05:32.531Z,0.20
2022-11-04T04:08:21.031Z,0.52
2022-11-04T04:10:56.781Z,0.70
2022-11-04T04:13:41.511Z,1.85
2022-11-04T04:16:27.897Z,0.43
2022-11-04T04:19:14.397Z,1.33
2022-11-04T04:21:56.870Z,5.50
2022-11-04T04:24:46.915Z,4.57
2022-11-04T04:27:33.140Z,1.35
2022-11-04T04:30:06.770Z,2.42
2022-11-04T04:32:46.475Z,3.10
2022-11-04T04:35:32.603Z,3.55
2022-11-04T04:38:22.857Z,0.22
2022-11-04T04:41:14.594Z,1.48
2022-11-04T04:44:01.663Z,1.75
2022-11-04T04:46:30.605Z,0.50
2022-11-04T04:49:08.028Z,1.70
2022-11-04T04:51:39.490Z,1.38
2022-11-04T04:54:06.858Z,1.88
2022-11-04T04:56:33.809Z,0.47
2022-11-04T04:59:00.693Z,5.00
2022-11-04T05:01:27.862Z,1.45
2022-11-04T05:03:54.824Z,2.50
2022-11-04T05:06:21.847Z,1.52
2022-11-04T05:08:48.770Z,1.55
2022-11-04T05:11:15.829Z,0.63
2022-11-04T05:13:42.735Z,0.95
2022-11-04T05:16:11.666Z,2.85
2022-11-04T05:18:39.003Z,5.40
2022-11-04T05:21:11.131Z,2.10
2022-11-04T05:23:38.381Z,1.75
2022-11-04T05:26:05.856Z,2.95
2022-11-04T05:28:33.530Z,2.95
2022-11-04T05:31:07.438Z,1.90
2022-11-04T05:33:34.431Z,0.40
2022-11-04T05:36:13.090Z,1.20
2022-11-04T05:38:40.711Z,0.10
2022-11-04T05:41:09.960Z,2.22
2022-11-04T05:43:37.034Z,0.10
2022-11-04T05:46:04.357Z,4.05
2022-11-04T05:48:34.033Z,0.55
2022-11-04T05:51:03.390Z,0.57
2022-11-04T05:53:30.465Z,0.28
2022-11-04T05:55:59.371Z,0.50
2022-11-04T05:58:26.302Z,0.50
2022-11-04T06:00:53.173Z,0.17
2022-11-04T06:03:20.109Z,1.65
2022-11-04T06:05:47.082Z,1.52
2022-11-04T06:08:14.012Z,2.00
2022-11-04T06:10:40.916Z,0.95
2022-11-04T06:13:07.853Z,2.05
2022-11-04T06:15:34.757Z,2.00
2022-11-04T06:18:02.335Z,0.60
2022-11-04T06:20:29.291Z,0.20
2022-11-04T06:22:56.192Z,0.22
2022-11-04T06:25:23.111Z,0.85
2022-11-04T06:27:50.004Z,1.52
2022-11-04T06:30:17.585Z,0.00
2022-11-04T06:32:44.459Z,0.10
2022-11-04T06:35:11.542Z,0.10
2022-11-04T06:37:38.484Z,1.98
2022-11-04T06:40:05.954Z,1.63
2022-11-04T06:42:32.901Z,1.40
2022-11-04T06:44:59.773Z,2.20
2022-11-04T06:47:26.670Z,1.17
2022-11-04T06:49:53.540Z,0.20
2022-11-04T06:52:20.409Z,0.40
2022-11-04T06:54:48.086Z,0.75
2022-11-04T06:57:15.086Z,1.45
2022-11-04T06:59:42.010Z,0.93
2022-11-04T07:02:11.628Z,0.30
2022-11-04T07:04:38.625Z,2.50
2022-11-04T07:07:05.528Z,0.65
2022-11-04T07:09:32.551Z,0.93
2022-11-04T07:11:59.909Z,0.80
2022-11-04T07:14:27.515Z,1.02
2022-11-04T07:16:54.491Z,2.20
2022-11-04T07:19:21.379Z,1.75
2022-11-04T07:21:48.258Z,0.38
2022-11-04T07:24:15.194Z,0.22
2022-11-04T07:26:42.650Z,0.45
2022-11-04T07:29:11.217Z,1.23
2022-11-04T07:31:38.806Z,1.80
2022-11-04T07:34:06.068Z,1.75
2022-11-04T07:36:33.013Z,0.57
2022-11-04T07:39:00.033Z,0.47
2022-11-04T07:41:27.315Z,2.55
2022-11-04T07:43:54.978Z,0.30
2022-11-04T07:46:22.157Z,2.58
2022-11-04T07:48:49.047Z,0.25
2022-11-04T07:51:19.639Z,0.70
2022-11-04T07:53:46.841Z,1.23
2022-11-04T07:56:14.416Z,2.65
2022-11-04T07:58:41.683Z,0.40
2022-11-04T08:01:16.246Z,1.92
2022-11-04T08:03:43.573Z,1.02
2022-11-04T08:06:12.607Z,3.97
2022-11-04T08:08:39.839Z,2.90
2022-11-04T08:11:15.927Z,4.93
2022-11-04T08:13:44.711Z,3.03
2022-11-04T08:16:14.577Z,4.28
2022-11-04T08:18:43.181Z,2.58
2022-11-04T08:21:11.184Z,1.42
2022-11-04T08:23:38.746Z,3.35
2022-11-04T08:26:14.667Z,1.73
2022-11-04T08:28:41.891Z,1.02
2022-11-04T08:31:14.121Z,0.73
2022-11-04T08:33:41.864Z,0.90
2022-11-04T08:36:16.694Z,2.78
2022-11-04T08:38:47.181Z,3.33
2022-11-04T08:41:16.659Z,0.50
2022-11-04T08:43:43.718Z,4.65
2022-11-04T08:46:11.238Z,0.52
2022-11-04T08:48:39.658Z,1.17
2022-11-04T08:51:12.564Z,3.47
2022-11-04T08:53:39.537Z,1.30
2022-11-04T08:56:18.187Z,1.85
2022-11-04T08:58:45.650Z,0.88
2022-11-04T09:01:13.051Z,1.95
2022-11-04T09:03:45.335Z,0.20
2022-11-04T09:06:16.991Z,1.20
2022-11-04T09:08:43.932Z,1.95
2022-11-04T09:11:12.743Z,1.00
2022-11-04T09:13:41.042Z,1.20
2022-11-04T09:16:10.399Z,1.52
2022-11-04T09:18:37.603Z,1.65
2022-11-04T09:21:06.451Z,2.03
2022-11-04T09:23:33.494Z,2.15
2022-11-04T09:26:13.065Z,4.43
2022-11-04T09:28:40.871Z,1.85
2022-11-04T09:31:18.734Z,1.40
2022-11-04T09:33:46.149Z,2.95
2022-11-04T09:36:14.273Z,1.25
2022-11-04T09:38:42.236Z,1.55
2022-11-04T09:41:32.589Z,1.05
2022-11-04T09:44:17.480Z,1.52
2022-11-04T09:46:45.571Z,1.33
2022-11-04T09:49:13.983Z,0.57
2022-11-04T09:51:57.442Z,0.68
2022-11-04T09:54:29.611Z,0.70
2022-11-04T09:56:59.558Z,1.58
2022-11-04T09:59:34.472Z,2.70
2022-11-04T10:02:45.989Z,0.88
2022-11-04T10:05:37.229Z,0.38
2022-11-04T10:08:13.951Z,0.38
2022-11-04T10:11:19.310Z,0.70
2022-11-04T10:14:23.345Z,2.72
2022-11-04T10:16:57.055Z,1.35
2022-11-04T10:19:38.164Z,1.15
2022-11-04T10:22:34.797Z,0.77
2022-11-04T10:25:04.563Z,3.08
2022-11-04T10:27:35.488Z,2.22
2022-11-04T10:30:04.127Z,0.90
2022-11-04T10:32:53.113Z,0.25
2022-11-04T10:35:29.341Z,0.73
2022-11-04T10:37:58.592Z,1.33
2022-11-04T10:40:32.360Z,1.67
2022-11-04T10:43:00.928Z,1.73
2022-11-04T10:45:41.545Z,1.80
2022-11-04T10:48:18.586Z,0.40
2022-11-04T10:50:57.281Z,11.93
2022-11-04T10:53:29.897Z,11.23
2022-11-04T10:56:22.551Z,15.95
2022-11-04T10:58:49.637Z,7.32
2022-11-04T11:01:30.525Z,5.97
2022-11-04T11:03:58.373Z,6.40
2022-11-04T11:06:34.953Z,0.95
2022-11-04T11:09:28.658Z,4.05
2022-11-04T11:12:48.829Z,6.78
2022-11-04T11:15:30.372Z,2.30
2022-11-04T11:18:13.187Z,1.23
2022-11-04T11:20:41.265Z,1.60
2022-11-04T11:23:32.914Z,0.98
2022-11-04T11:26:00.646Z,2.00
2022-11-04T11:28:27.936Z,3.78
2022-11-04T11:31:07.018Z,1.42
2022-11-04T11:33:37.269Z,0.80
2022-11-04T11:36:20.876Z,0.75
2022-11-04T11:39:06.079Z,0.40
2022-11-04T11:41:54.401Z,2.03
2022-11-04T11:44:44.421Z,1.08
2022-11-04T11:47:44.724Z,1.92
2022-11-04T11:50:20.927Z,1.40
2022-11-04T11:52:49.330Z,1.90
2022-11-04T11:55:29.223Z,6.45
2022-11-04T12:01:25.666Z,0.65
2022-11-04T12:09:47.716Z,2.45
2022-11-04T12:12:17.748Z,0.93
2022-11-04T12:14:50.435Z,0.80
2022-11-04T12:17:50.641Z,2.25
2022-11-04T12:20:45.643Z,0.30
2022-11-04T12:23:31.116Z,0.10
2022-11-04T12:26:15.571Z,0.45
2022-11-04T12:28:47.161Z,0.93
2022-11-04T12:31:40.801Z,2.03
2022-11-04T12:34:19.719Z,0.65
2022-11-04T12:37:24.636Z,3.75
2022-11-04T12:40:28.028Z,0.90
2022-11-04T12:43:13.020Z,0.65
2022-11-04T12:46:09.235Z,1.10
2022-11-04T12:48:41.979Z,0.60
2022-11-04T12:51:16.402Z,1.58
2022-11-04T12:54:30.759Z,0.95
2022-11-04T12:57:21.765Z,1.80
2022-11-04T13:00:04.631Z,0.88
2022-11-04T13:02:35.568Z,0.68
2022-11-04T13:05:21.179Z,0.28
2022-11-04T13:08:01.720Z,1.13
2022-11-04T13:10:31.603Z,2.28
2022-11-04T13:13:02.383Z,1.50
2022-11-04T13:15:44.706Z,3.42
2022-11-04T13:18:16.773Z,2.00
2022-11-04T13:21:02.310Z,0.25
2022-11-04T13:23:40.437Z,1.38
2022-11-04T13:26:13.063Z,0.98
2022-11-04T13:28:42.011Z,1.52
2022-11-04T13:31:34.204Z,0.50
2022-11-04T13:34:25.963Z,0.75
2022-11-04T13:37:18.208Z,3.50
2022-11-04T13:40:26.632Z,0.57
2022-11-04T13:43:23.868Z,0.80
2022-11-04T13:48:26.684Z,1.13
2022-11-04T13:51:08.443Z,0.85
2022-11-04T13:53:46.124Z,1.75
2022-11-04T13:56:34.795Z,0.30
2022-11-04T13:59:23.711Z,1.75
2022-11-04T14:02:16.366Z,1.25
2022-11-04T14:04:45.912Z,3.90
2022-11-04T14:07:17.079Z,4.47
2022-11-04T14:09:44.296Z,7.72
2022-11-04T14:12:11.419Z,2.30
2022-11-04T14:14:42.633Z,2.05
2022-11-04T14:17:35.550Z,3.08
2022-11-04T14:20:06.332Z,7.47
2022-11-04T14:22:54.856Z,3.70
2022-11-04T14:25:24.260Z,1.73
2022-11-04T14:27:53.888Z,3.65
2022-11-04T14:30:31.733Z,3.80
2022-11-04T14:33:02.375Z,4.03
2022-11-04T14:35:30.910Z,1.77
2022-11-04T14:38:08.050Z,1.98
2022-11-04T14:41:11.083Z,1.10
2022-11-04T14:43:42.391Z,2.75
2022-11-04T14:46:10.665Z,1.90
2022-11-04T14:48:47.088Z,1.25
2022-11-04T14:51:28.041Z,7.85
2022-11-04T14:54:05.477Z,5.10
2022-11-04T14:56:32.714Z,2.25
2022-11-04T14:59:05.840Z,1.25
2022-11-04T15:01:39.360Z,1.75
2022-11-04T15:04:29.645Z,2.25
2022-11-04T15:07:05.360Z,3.03
2022-11-04T15:09:35.504Z,2.53
2022-11-04T15:12:29.372Z,2.60
2022-11-04T15:14:58.002Z,2.45
2022-11-04T15:17:29.222Z,2.75
2022-11-04T15:19:59.733Z,5.60
2022-11-04T15:22:28.609Z,30.88
2022-11-04T15:24:56.840Z,67.72
2022-11-04T15:27:29.861Z,68.72
2022-11-04T15:30:05.426Z,42.67
2022-11-04T15:32:32.351Z,56.53
2022-11-04T15:34:59.867Z,42.35
2022-11-04T15:37:29.113Z,65.90
2022-11-04T15:39:58.479Z,57.13
2022-11-04T15:42:43.678Z,32.60
2022-11-04T15:45:25.532Z,6.28
2022-11-04T15:48:29.991Z,8.45
2022-11-04T15:51:15.470Z,6.25
2022-11-04T15:54:03.144Z,5.15
2022-11-04T15:56:35.328Z,12.43
2022-11-04T15:59:02.955Z,23.70
2022-11-04T16:01:30.049Z,35.22
2022-11-04T16:03:59.551Z,18.67
2022-11-04T16:06:37.593Z,69.45
2022-11-04T16:09:14.209Z,16.98
2022-11-04T16:12:01.151Z,3.08
2022-11-04T16:14:30.466Z,2.97
2022-11-04T16:16:57.436Z,4.43
2022-11-04T16:19:30.383Z,2.15
2022-11-04T16:22:10.812Z,2.05
2022-11-04T16:24:42.810Z,3.40
2022-11-04T16:27:19.088Z,1.98
2022-11-04T16:32:28.087Z,3.03
2022-11-04T16:35:01.949Z,2.17
2022-11-04T16:37:30.212Z,1.70
2022-11-04T16:39:57.157Z,4.15
2022-11-04T16:42:24.493Z,2.45
2022-11-04T16:44:59.127Z,1.70
2022-11-04T16:47:28.471Z,1.73
2022-11-04T16:49:59.400Z,2.42
2022-11-04T16:52:26.368Z,3.10
2022-11-04T16:54:56.413Z,2.97
2022-11-04T16:57:24.575Z,2.40
2022-11-04T16:59:51.669Z,1.83
2022-11-04T17:02:24.708Z,3.95
2022-11-04T17:04:51.698Z,5.75
2022-11-04T17:07:18.643Z,3.10
2022-11-04T17:09:45.696Z,1.98
2022-11-04T17:12:12.686Z,2.85
2022-11-04T17:14:39.629Z,2.83
2022-11-04T17:17:06.665Z,2.00
2022-11-04T17:19:34.882Z,4.15
2022-11-04T17:22:04.482Z,2.13
2022-11-04T17:24:31.478Z,1.70
2022-11-04T17:26:58.785Z,2.05
2022-11-04T17:29:25.728Z,1.65
2022-11-04T17:31:53.855Z,3.42
2022-11-04T17:34:23.852Z,2.67
2022-11-04T17:36:50.777Z,3.58
2022-11-04T17:39:17.690Z,3.45
2022-11-04T17:42:03.226Z,3.53
2022-11-04T17:44:30.221Z,3.45
2022-11-04T17:46:57.995Z,3.22
2022-11-04T17:49:26.410Z,3.00
2022-11-04T17:51:55.917Z,3.17
2022-11-04T17:54:24.312Z,5.25
2022-11-04T17:56:51.559Z,5.20
2022-11-04T17:59:19.674Z,3.70
2022-11-04T18:01:47.265Z,4.00
2022-11-04T18:04:18.754Z,4.40
2022-11-04T18:06:45.831Z,4.45
2022-11-04T18:09:17.472Z,3.53
2022-11-04T18:12:04.239Z,2.38
2022-11-04T18:16:58.101Z,1.75
2022-11-04T18:19:26.633Z,4.05
2022-11-04T18:21:53.738Z,3.28
2022-11-04T18:24:20.769Z,1.92
2022-11-04T18:26:50.802Z,2.35
2022-11-04T18:29:20.931Z,2.35
2022-11-04T18:31:49.672Z,2.08
2022-11-04T18:34:19.601Z,1.35
2022-11-04T18:36:48.309Z,4.03
2022-11-04T18:39:17.288Z,1.13
2022-11-04T18:41:45.747Z,1.70
2022-11-04T18:44:19.517Z,2.22
2022-11-04T18:46:47.848Z,10.68
2022-11-04T18:49:15.936Z,4.70
2022-11-04T18:51:44.013Z,3.05
2022-11-04T18:54:12.294Z,2.03
2022-11-04T18:56:39.506Z,4.88
2022-11-04T18:59:09.479Z,8.88
2022-11-04T19:01:36.669Z,4.95
2022-11-04T19:04:03.959Z,6.68
2022-11-04T19:06:34.058Z,13.90
2022-11-04T19:09:13.427Z,8.25
2022-11-04T19:11:46.921Z,4.05
2022-11-04T19:14:19.030Z,17.77
2022-11-04T19:16:45.931Z,9.60
2022-11-04T19:19:18.070Z,13.48
2022-11-04T19:21:47.338Z,26.75
2022-11-04T19:24:14.264Z,22.75
2022-11-04T19:26:41.208Z,15.68
2022-11-04T19:29:08.142Z,11.77
2022-11-04T19:31:36.456Z,13.23
2022-11-04T19:34:04.698Z,10.02
2022-11-04T19:36:33.372Z,5.65
2022-11-04T19:39:00.642Z,3.85
2022-11-04T19:41:46.268Z,4.78
2022-11-04T19:44:16.310Z,4.30
2022-11-04T19:46:44.267Z,5.93
2022-11-04T19:49:12.548Z,2.05
2022-11-04T19:51:39.865Z,2.45
2022-11-04T19:54:07.073Z,3.28
2022-11-04T19:56:36.452Z,5.57
2022-11-04T19:59:06.470Z,9.18
2022-11-04T20:01:35.289Z,11.13
2022-11-04T20:04:03.813Z,12.90
2022-11-04T20:06:32.452Z,6.95
2022-11-04T20:09:05.433Z,5.35
2022-11-04T20:11:34.448Z,5.45
2022-11-04T20:14:07.550Z,4.43
2022-11-04T20:16:39.411Z,3.83
2022-11-04T20:19:09.460Z,6.03
2022-11-04T20:21:37.151Z,89.95
2022-11-04T20:24:07.546Z,9.85
2022-11-04T20:26:36.452Z,10.10
2022-11-04T20:29:04.790Z,6.80
2022-11-04T20:31:34.757Z,5.50
2022-11-04T20:34:08.089Z,4.25
2022-11-04T20:36:36.213Z,8.82
2022-11-04T20:39:06.080Z,5.57
2022-11-04T20:41:33.115Z,8.57
2022-11-04T20:44:00.476Z,4.65
2022-11-04T20:46:34.633Z,14.88
2022-11-04T20:49:05.753Z,19.63
2022-11-04T20:51:37.696Z,24.90
2022-11-04T20:54:08.757Z,10.07
2022-11-04T20:56:37.470Z,5.97
2022-11-04T20:59:06.119Z,5.50
2022-11-04T21:01:39.663Z,4.15
2022-11-04T21:04:15.072Z,3.05
2022-11-04T21:06:42.580Z,3.63
2022-11-04T21:09:11.830Z,6.55
2022-11-04T21:11:39.772Z,3.20
2022-11-04T21:14:13.811Z,4.10
2022-11-04T21:16:41.291Z,5.40
2022-11-04T21:19:08.327Z,3.60
2022-11-04T21:21:35.620Z,11.93
2022-11-04T21:24:05.066Z,19.50
2022-11-04T21:26:34.570Z,11.52
2022-11-04T21:29:06.420Z,14.80
2022-11-04T21:31:35.862Z,13.20
2022-11-04T21:34:03.738Z,6.45
2022-11-04T21:36:31.525Z,7.82
2022-11-04T21:38:59.231Z,4.97
2022-11-04T21:41:28.707Z,4.43
2022-11-04T21:44:00.866Z,4.85
2022-11-04T21:46:30.352Z,3.40
2022-11-04T21:48:57.556Z,2.58
2022-11-04T21:51:26.780Z,2.85
2022-11-04T21:53:53.778Z,3.10
2022-11-04T21:56:23.706Z,5.35
2022-11-04T21:58:52.585Z,5.85
2022-11-04T22:01:24.542Z,2.83
2022-11-04T22:03:54.904Z,4.20
2022-11-04T22:06:22.462Z,6.20
2022-11-04T22:08:54.516Z,11.15
2022-11-04T22:11:24.281Z,10.18
2022-11-04T22:13:59.457Z,5.13
2022-11-04T22:16:29.275Z,8.20
2022-11-04T22:18:58.370Z,6.90
2022-11-04T22:21:27.250Z,5.85
2022-11-04T22:23:54.845Z,9.07
2022-11-04T22:26:24.511Z,3.10
2022-11-04T22:28:52.479Z,3.50
2022-11-04T22:31:21.541Z,1.38
2022-11-04T22:33:49.201Z,2.78
2022-11-04T22:36:16.143Z,2.42
2022-11-04T22:38:44.112Z,1.10
2022-11-04T22:41:15.290Z,1.95
2022-11-04T22:43:42.810Z,2.83
2022-11-04T22:46:14.381Z,2.55
2022-11-04T22:48:41.585Z,2.65
2022-11-04T22:51:09.961Z,5.25
2022-11-04T22:53:38.230Z,4.28
2022-11-04T22:56:06.667Z,4.55
2022-11-04T22:58:34.046Z,3.80
2022-11-04T23:01:04.199Z,4.65
2022-11-04T23:03:31.540Z,4.90
2022-11-04T23:06:00.652Z,2.45
2022-11-04T23:08:29.116Z,4.35
2022-11-04T23:11:17.057Z,7.65
2022-11-04T23:14:20.429Z,13.30
2022-11-04T23:17:09.136Z,9.70
2022-11-04T23:19:37.471Z,19.20
2022-11-04T23:22:23.987Z,14.52
2022-11-04T23:25:06.133Z,10.77
2022-11-04T23:28:11.467Z,4.05
2022-11-04T23:30:43.643Z,2.10
2022-11-04T23:33:12.892Z,3.03
2022-11-04T23:36:04.698Z,1.92
2022-11-04T23:38:32.506Z,2.00
2022-11-04T23:41:21.315Z,3.28
2022-11-04T23:43:48.526Z,1.83
2022-11-04T23:46:39.390Z,1.85
2022-11-04T23:49:43.775Z,1.40
2022-11-04T23:52:29.514Z,1.73
2022-11-04T23:55:14.994Z,2.53
2022-11-04T23:58:00.430Z,3.65
